createdAt,value
2017-09-15T00:00:41.171Z,13.3
2017-09-15T00:01:41.959Z,13.4
2017-09-15T00:02:42.721Z,13.3
2017-09-15T00:03:43.813Z,13.2
2017-09-15T00:04:44.751Z,13.3
2017-09-15T00:05:45.948Z,13.3
2017-09-15T00:06:46.642Z,13.3
2017-09-15T00:07:47.433Z,13.2
2017-09-15T00:08:48.201Z,13.2
2017-09-15T00:09:48.981Z,13.2
2017-09-15T00:10:49.734Z,13.3
2017-09-15T00:11:51.010Z,13.3
2017-09-15T00:12:51.972Z,13.3
2017-09-15T00:13:52.739Z,13.3
2017-09-15T00:14:53.527Z,13.3
2017-09-15T00:15:54.670Z,13.2
2017-09-15T00:16:55.632Z,13.3
2017-09-15T00:17:56.937Z,13.3
2017-09-15T00:18:58.017Z,13.3
2017-09-15T00:19:58.944Z,13.3
2017-09-15T00:20:59.653Z,13.2
2017-09-15T00:22:00.379Z,13.2
2017-09-15T00:23:01.444Z,13.2
2017-09-15T00:24:02.142Z,13.2
2017-09-15T00:25:03.004Z,13.1
2017-09-15T00:26:04.062Z,13.1
2017-09-15T00:27:05.579Z,13.1
2017-09-15T00:28:06.457Z,13.0
2017-09-15T00:29:13.516Z,13.1
2017-09-15T00:30:14.848Z,13.0
2017-09-15T00:31:15.908Z,13.1
2017-09-15T00:32:17.253Z,13.0
2017-09-15T00:33:18.027Z,12.9
2017-09-15T00:34:19.517Z,12.9
2017-09-15T00:35:20.533Z,13.1
2017-09-15T00:36:21.544Z,13.1
2017-09-15T00:37:22.558Z,13.0
2017-09-15T00:38:23.439Z,13.0
2017-09-15T00:39:24.143Z,13.1
2017-09-15T00:40:24.916Z,13.1
2017-09-15T00:41:25.693Z,13.1
2017-09-15T00:42:26.492Z,13.3
2017-09-15T00:43:27.286Z,13.3
2017-09-15T00:44:28.101Z,13.4
2017-09-15T00:45:29.146Z,13.4
2017-09-15T00:46:29.825Z,13.2
2017-09-15T00:47:30.556Z,13.3
2017-09-15T00:48:31.341Z,13.4
2017-09-15T00:49:32.100Z,13.3
2017-09-15T00:50:32.929Z,13.4
2017-09-15T00:51:33.717Z,13.4
2017-09-15T00:52:34.472Z,13.3
2017-09-15T00:53:35.203Z,13.4
2017-09-15T00:54:36.876Z,13.4
2017-09-15T00:55:37.613Z,13.4
2017-09-15T00:56:38.336Z,13.4
2017-09-15T00:57:39.077Z,13.5
2017-09-15T00:58:39.863Z,13.4
2017-09-15T00:59:41.277Z,13.5
2017-09-15T01:00:42.373Z,13.5
2017-09-15T01:01:44.149Z,13.5
2017-09-15T01:02:45.302Z,13.5
2017-09-15T01:03:46.298Z,13.5
2017-09-15T01:04:47.925Z,13.6
2017-09-15T01:05:49.082Z,13.6
2017-09-15T01:06:50.447Z,13.6
2017-09-15T01:07:51.611Z,13.5
2017-09-15T01:08:53.159Z,13.6
2017-09-15T01:09:53.830Z,13.4
2017-09-15T01:10:54.626Z,13.5
2017-09-15T01:11:55.574Z,13.5
2017-09-15T01:12:56.397Z,13.5
2017-09-15T01:13:57.127Z,13.4
2017-09-15T01:14:58.031Z,13.6
2017-09-15T01:15:58.813Z,13.4
2017-09-15T01:16:59.933Z,13.3
2017-09-15T01:18:00.620Z,13.5
2017-09-15T01:19:01.368Z,13.5
2017-09-15T01:20:02.155Z,13.5
2017-09-15T01:21:03.254Z,13.6
2017-09-15T01:22:03.993Z,13.7
2017-09-15T01:23:05.052Z,13.5
2017-09-15T01:24:05.773Z,13.4
2017-09-15T01:25:06.608Z,13.5
2017-09-15T01:26:07.368Z,13.5
2017-09-15T01:27:08.165Z,13.6
2017-09-15T01:28:08.926Z,13.6
2017-09-15T01:29:09.726Z,13.6
2017-09-15T01:30:10.611Z,13.6
2017-09-15T01:31:11.624Z,13.7
2017-09-15T01:32:12.617Z,13.6
2017-09-15T01:33:13.439Z,13.7
2017-09-15T01:34:14.219Z,13.5
2017-09-15T01:35:14.961Z,13.5
2017-09-15T01:36:15.669Z,13.4
2017-09-15T01:37:16.468Z,13.3
2017-09-15T01:38:17.243Z,13.2
2017-09-15T01:39:18.007Z,13.3
2017-09-15T01:40:18.726Z,13.3
2017-09-15T01:41:19.455Z,13.3
2017-09-15T01:42:20.296Z,13.2
2017-09-15T01:43:21.752Z,13.2
2017-09-15T01:44:22.504Z,12.9
2017-09-15T01:45:23.280Z,12.8
2017-09-15T01:46:24.080Z,12.7
2017-09-15T01:47:25.014Z,12.9
2017-09-15T01:48:25.851Z,12.9
2017-09-15T01:49:26.626Z,12.9
2017-09-15T01:50:27.742Z,13.1
2017-09-15T01:51:28.738Z,13.1
2017-09-15T01:52:30.166Z,13.2
2017-09-15T01:53:30.931Z,13.3
2017-09-15T01:54:32.551Z,13.3
2017-09-15T01:55:33.463Z,13.3
2017-09-15T01:56:34.212Z,13.3
2017-09-15T01:57:35.011Z,13.3
2017-09-15T01:58:35.734Z,13.3
2017-09-15T01:59:36.469Z,13.3
2017-09-15T02:01:52.755Z,13.3
2017-09-15T02:02:53.451Z,13.2
2017-09-15T02:03:54.234Z,13.2
2017-09-15T02:04:55.052Z,13.1
2017-09-15T02:05:55.968Z,13.2
2017-09-15T02:06:56.709Z,13.2
2017-09-15T02:07:57.439Z,13.4
2017-09-15T02:08:58.231Z,13.5
2017-09-15T02:09:58.987Z,13.5
2017-09-15T02:10:59.798Z,13.5
2017-09-15T02:12:00.741Z,13.4
2017-09-15T02:13:01.506Z,13.4
2017-09-15T02:14:02.867Z,13.4
2017-09-15T02:15:03.663Z,13.4
2017-09-15T02:16:04.453Z,13.3
2017-09-15T02:17:05.243Z,13.4
2017-09-15T02:18:06.203Z,13.2
2017-09-15T02:19:07.380Z,13.3
2017-09-15T02:20:08.063Z,13.2
2017-09-15T02:21:08.775Z,13.0
2017-09-15T02:22:09.527Z,13.1
2017-09-15T02:23:10.261Z,13.1
2017-09-15T02:24:11.320Z,13.1
2017-09-15T02:25:12.180Z,13.1
2017-09-15T02:26:12.917Z,13.0
2017-09-15T02:27:13.744Z,13.1
2017-09-15T02:28:14.430Z,13.1
2017-09-15T02:29:15.287Z,13.1
2017-09-15T02:30:16.026Z,13.1
2017-09-15T02:31:16.974Z,13.1
2017-09-15T02:32:17.752Z,13.0
2017-09-15T02:33:18.451Z,12.8
2017-09-15T02:34:19.286Z,12.9
2017-09-15T02:35:20.068Z,13.1
2017-09-15T02:36:20.760Z,13.0
2017-09-15T02:37:21.513Z,13.1
2017-09-15T02:38:22.295Z,13.2
2017-09-15T02:39:23.038Z,13.2
2017-09-15T02:40:23.852Z,13.2
2017-09-15T02:41:24.906Z,13.2
2017-09-15T02:42:25.576Z,13.3
2017-09-15T02:43:26.457Z,13.3
2017-09-15T02:44:27.248Z,13.3
2017-09-15T02:45:27.992Z,13.5
2017-09-15T02:46:29.151Z,13.4
2017-09-15T02:47:29.875Z,13.5
2017-09-15T02:48:30.807Z,13.6
2017-09-15T02:49:31.686Z,13.5
2017-09-15T02:50:32.515Z,13.6
2017-09-15T02:51:33.270Z,13.5
2017-09-15T02:52:33.968Z,13.6
2017-09-15T02:53:34.775Z,13.4
2017-09-15T02:54:35.509Z,13.5
2017-09-15T02:55:36.348Z,13.5
2017-09-15T02:56:37.196Z,13.5
2017-09-15T02:57:38.496Z,13.6
2017-09-15T02:58:39.229Z,13.6
2017-09-15T02:59:40.388Z,13.6
2017-09-15T03:00:41.084Z,13.6
2017-09-15T03:01:41.810Z,13.5
2017-09-15T03:02:42.504Z,13.6
2017-09-15T03:03:43.409Z,13.6
2017-09-15T03:04:44.214Z,13.5
2017-09-15T03:05:44.942Z,13.7
2017-09-15T03:06:45.675Z,13.6
2017-09-15T03:07:46.408Z,13.6
2017-09-15T03:08:47.443Z,13.6
2017-09-15T03:09:48.122Z,13.5
2017-09-15T03:10:48.864Z,13.6
2017-09-15T03:11:49.606Z,13.5
2017-09-15T03:12:50.344Z,13.5
2017-09-15T03:13:51.076Z,13.6
2017-09-15T03:14:51.902Z,13.4
2017-09-15T03:15:52.693Z,13.4
2017-09-15T03:16:53.461Z,13.5
2017-09-15T03:17:54.174Z,13.5
2017-09-15T03:18:55.049Z,13.5
2017-09-15T03:19:55.798Z,13.6
2017-09-15T03:20:56.561Z,13.6
2017-09-15T03:21:57.309Z,13.6
2017-09-15T03:22:58.270Z,13.5
2017-09-15T03:23:59.056Z,13.6
2017-09-15T03:24:59.923Z,13.5
2017-09-15T03:26:00.689Z,13.5
2017-09-15T03:27:01.465Z,13.5
2017-09-15T03:28:02.179Z,13.6
2017-09-15T03:29:02.912Z,13.5
2017-09-15T03:30:03.654Z,13.5
2017-09-15T03:31:04.650Z,13.5
2017-09-15T03:32:05.668Z,13.5
2017-09-15T03:33:06.434Z,13.5
2017-09-15T03:34:07.157Z,13.6
2017-09-15T03:35:07.933Z,13.5
2017-09-15T03:36:08.886Z,13.6
2017-09-15T03:37:09.735Z,13.5
2017-09-15T03:38:10.734Z,13.6
2017-09-15T03:39:11.557Z,13.6
2017-09-15T03:40:12.323Z,13.6
2017-09-15T03:41:13.320Z,13.4
2017-09-15T03:42:14.080Z,13.4
2017-09-15T03:43:15.261Z,13.4
2017-09-15T03:44:16.036Z,13.5
2017-09-15T03:45:16.864Z,13.5
2017-09-15T03:46:17.826Z,13.3
2017-09-15T03:47:18.566Z,13.4
2017-09-15T03:48:19.316Z,13.3
2017-09-15T03:49:20.009Z,13.4
2017-09-15T03:50:20.774Z,13.4
2017-09-15T03:51:21.505Z,13.3
2017-09-15T03:52:22.274Z,13.3
2017-09-15T03:53:23.015Z,13.4
2017-09-15T03:54:23.762Z,13.4
2017-09-15T03:55:24.591Z,13.5
2017-09-15T03:56:25.297Z,13.5
2017-09-15T03:57:26.285Z,13.5
2017-09-15T03:58:27.085Z,13.4
2017-09-15T03:59:28.108Z,13.4
2017-09-15T04:00:28.889Z,13.5
2017-09-15T04:01:30.179Z,13.4
2017-09-15T04:02:30.971Z,13.4
2017-09-15T04:03:31.719Z,13.5
2017-09-15T04:04:32.526Z,13.5
2017-09-15T04:05:33.278Z,13.4
2017-09-15T04:06:34.305Z,13.3
2017-09-15T04:07:35.031Z,13.3
2017-09-15T04:08:35.803Z,13.4
2017-09-15T04:09:36.771Z,13.4
2017-09-15T04:10:37.490Z,13.5
2017-09-15T04:11:38.250Z,13.4
2017-09-15T04:12:39.060Z,13.4
2017-09-15T04:13:39.896Z,13.4
2017-09-15T04:14:40.603Z,13.5
2017-09-15T04:16:56.947Z,13.5
2017-09-15T04:17:57.644Z,13.6
2017-09-15T04:18:58.526Z,13.7
2017-09-15T04:19:59.360Z,13.6
2017-09-15T04:21:00.159Z,13.6
2017-09-15T04:22:00.989Z,13.6
2017-09-15T04:23:01.909Z,13.6
2017-09-15T04:25:18.305Z,13.7
2017-09-15T04:26:19.087Z,13.8
2017-09-15T04:27:19.934Z,13.8
2017-09-15T04:28:20.878Z,13.7
2017-09-15T04:29:21.960Z,13.7
2017-09-15T04:30:22.835Z,13.9
2017-09-15T04:31:23.610Z,13.8
2017-09-15T04:32:24.449Z,13.8
2017-09-15T04:33:25.191Z,13.8
2017-09-15T04:34:25.936Z,13.8
2017-09-15T04:35:26.785Z,13.8
2017-09-15T04:36:27.486Z,13.7
2017-09-15T04:37:28.294Z,13.8
2017-09-15T04:38:29.131Z,13.9
2017-09-15T04:39:29.882Z,13.8
2017-09-15T04:40:31.469Z,13.8
2017-09-15T04:41:32.168Z,13.8
2017-09-15T04:42:33.005Z,13.9
2017-09-15T04:43:33.729Z,13.8
2017-09-15T04:44:34.692Z,13.9
2017-09-15T04:45:35.372Z,13.8
2017-09-15T04:46:36.288Z,13.8
2017-09-15T04:47:38.250Z,13.8
2017-09-15T04:48:39.028Z,13.9
2017-09-15T04:49:39.758Z,13.8
2017-09-15T04:50:40.567Z,13.9
2017-09-15T04:51:41.305Z,13.8
2017-09-15T04:52:42.520Z,13.9
2017-09-15T04:53:43.259Z,13.9
2017-09-15T04:54:44.174Z,13.9
2017-09-15T04:55:44.955Z,13.8
2017-09-15T04:56:45.741Z,13.9
2017-09-15T04:57:46.475Z,13.8
2017-09-15T04:58:47.405Z,13.8
2017-09-15T04:59:48.155Z,13.9
2017-09-15T05:02:04.497Z,13.8
2017-09-15T05:03:05.432Z,13.9
2017-09-15T05:04:06.227Z,13.8
2017-09-15T05:05:07.577Z,13.7
2017-09-15T05:06:08.259Z,13.8
2017-09-15T05:07:08.982Z,13.9
2017-09-15T05:08:09.760Z,13.8
2017-09-15T05:09:10.538Z,13.9
2017-09-15T05:10:11.260Z,14.0
2017-09-15T05:11:11.987Z,13.9
2017-09-15T05:12:12.816Z,13.9
2017-09-15T05:13:13.627Z,13.9
2017-09-15T05:14:14.697Z,13.9
2017-09-15T05:15:15.486Z,13.8
2017-09-15T05:16:16.699Z,13.8
2017-09-15T05:17:17.391Z,13.9
2017-09-15T05:18:18.100Z,13.8
2017-09-15T05:19:18.904Z,13.9
2017-09-15T05:20:19.697Z,13.8
2017-09-15T05:21:20.450Z,13.9
2017-09-15T05:22:21.322Z,13.8
2017-09-15T05:23:22.167Z,13.9
2017-09-15T05:24:22.898Z,13.8
2017-09-15T05:26:39.145Z,13.8
2017-09-15T05:27:39.953Z,13.9
2017-09-15T05:28:40.684Z,14.0
2017-09-15T05:29:41.454Z,13.9
2017-09-15T05:30:42.804Z,14.0
2017-09-15T05:31:43.564Z,14.0
2017-09-15T05:32:44.413Z,14.0
2017-09-15T05:33:45.413Z,14.0
2017-09-15T05:34:46.130Z,14.1
2017-09-15T05:35:46.962Z,14.1
2017-09-15T05:36:47.644Z,14.2
2017-09-15T05:37:48.482Z,14.3
2017-09-15T05:38:49.213Z,14.2
2017-09-15T05:39:49.947Z,14.0
2017-09-15T05:40:50.840Z,13.9
2017-09-15T05:41:52.898Z,14.0
2017-09-15T05:42:53.856Z,14.1
2017-09-15T05:43:54.809Z,14.0
2017-09-15T05:44:55.628Z,14.1
2017-09-15T05:45:56.442Z,14.1
2017-09-15T05:46:57.821Z,14.2
2017-09-15T05:47:58.641Z,14.3
2017-09-15T05:49:05.678Z,14.4
2017-09-15T05:50:06.413Z,14.3
2017-09-15T05:51:07.140Z,14.3
2017-09-15T05:52:07.887Z,14.3
2017-09-15T05:53:09.103Z,14.3
2017-09-15T05:54:16.676Z,14.4
2017-09-15T05:55:17.457Z,14.5
2017-09-15T05:56:18.559Z,14.4
2017-09-15T05:58:35.182Z,14.4
2017-09-15T05:59:36.753Z,14.5
2017-09-15T06:00:37.483Z,14.5
2017-09-15T06:01:38.400Z,14.5
2017-09-15T06:02:39.196Z,14.6
2017-09-15T06:03:39.981Z,14.5
2017-09-15T06:04:40.844Z,14.4
2017-09-15T06:05:41.634Z,14.5
2017-09-15T06:06:42.402Z,14.4
2017-09-15T06:10:14.434Z,14.6
2017-09-15T06:11:15.503Z,14.6
2017-09-15T06:12:16.279Z,14.6
2017-09-15T06:13:17.065Z,14.4
2017-09-15T06:14:17.818Z,14.4
2017-09-15T06:15:18.771Z,14.5
2017-09-15T06:16:19.504Z,14.5
2017-09-15T06:17:20.452Z,14.6
2017-09-15T06:18:21.255Z,14.7
2017-09-15T06:19:27.282Z,14.7
2017-09-15T06:20:28.399Z,14.7
2017-09-15T06:21:29.444Z,14.6
2017-09-15T06:22:30.155Z,14.7
2017-09-15T06:23:31.014Z,14.7
2017-09-15T06:24:31.714Z,14.7
2017-09-15T06:25:32.977Z,14.7
2017-09-15T06:26:34.223Z,14.6
2017-09-15T06:27:35.717Z,14.7
2017-09-15T06:28:37.161Z,14.7
2017-09-15T06:29:37.821Z,14.9
2017-09-15T06:30:39.012Z,14.7
2017-09-15T06:31:39.906Z,14.7
2017-09-15T06:32:40.700Z,14.8
2017-09-15T06:33:41.510Z,14.7
2017-09-15T06:34:42.495Z,14.8
2017-09-15T06:35:43.361Z,14.8
2017-09-15T06:36:44.305Z,14.9
2017-09-15T06:37:45.242Z,14.9
2017-09-15T06:38:46.000Z,14.9
2017-09-15T06:39:46.774Z,14.9
2017-09-15T06:40:47.645Z,14.9
2017-09-15T06:41:48.333Z,15.0
2017-09-15T06:42:49.257Z,15.0
2017-09-15T06:43:49.951Z,15.0
2017-09-15T06:44:50.683Z,15.0
2017-09-15T06:45:51.790Z,15.0
2017-09-15T06:46:52.547Z,15.1
2017-09-15T06:47:53.320Z,15.1
2017-09-15T06:48:54.440Z,15.2
2017-09-15T06:49:55.379Z,15.3
2017-09-15T06:50:56.253Z,15.3
2017-09-15T06:51:57.073Z,15.3
2017-09-15T06:52:57.791Z,15.3
2017-09-15T06:53:58.549Z,15.5
2017-09-15T06:54:59.293Z,15.4
2017-09-15T06:56:00.089Z,15.4
2017-09-15T06:57:00.963Z,15.5
2017-09-15T06:58:01.634Z,15.6
2017-09-15T06:59:02.383Z,15.6
2017-09-15T07:00:03.368Z,15.7
2017-09-15T07:01:04.257Z,15.7
2017-09-15T07:02:04.991Z,15.7
2017-09-15T07:03:05.758Z,15.6
2017-09-15T07:04:06.640Z,15.7
2017-09-15T07:05:07.535Z,15.7
2017-09-15T07:06:08.343Z,15.7
2017-09-15T07:07:09.310Z,15.7
2017-09-15T07:08:10.152Z,15.7
2017-09-15T07:09:11.113Z,15.7
2017-09-15T07:10:11.844Z,15.7
2017-09-15T07:11:12.659Z,15.8
2017-09-15T07:12:13.451Z,15.8
2017-09-15T07:13:14.231Z,15.9
2017-09-15T07:14:15.057Z,15.8
2017-09-15T07:15:15.940Z,15.7
2017-09-15T07:16:16.698Z,15.8
2017-09-15T07:17:17.503Z,15.9
2017-09-15T07:18:18.209Z,15.9
2017-09-15T07:19:19.192Z,16.0
2017-09-15T07:20:19.920Z,15.9
2017-09-15T07:21:20.793Z,15.9
2017-09-15T07:22:21.551Z,15.9
2017-09-15T07:23:22.287Z,15.8
2017-09-15T07:24:23.115Z,15.9
2017-09-15T07:25:23.922Z,15.8
2017-09-15T07:26:24.884Z,15.6
2017-09-15T07:27:25.657Z,15.7
2017-09-15T07:28:26.518Z,15.7
2017-09-15T07:29:27.242Z,15.7
2017-09-15T07:30:28.227Z,15.7
2017-09-15T07:31:28.980Z,15.7
2017-09-15T07:32:29.737Z,15.7
2017-09-15T07:33:30.441Z,15.7
2017-09-15T07:34:31.233Z,15.8
2017-09-15T07:35:31.993Z,15.6
2017-09-15T07:36:32.918Z,15.7
2017-09-15T07:37:33.707Z,15.8
2017-09-15T07:38:34.535Z,15.7
2017-09-15T07:39:35.255Z,15.7
2017-09-15T07:40:36.013Z,15.9
2017-09-15T07:41:36.951Z,15.9
2017-09-15T07:42:37.822Z,16.0
2017-09-15T07:43:38.636Z,15.8
2017-09-15T07:44:39.395Z,15.8
2017-09-15T07:45:40.424Z,15.8
2017-09-15T07:46:41.169Z,15.9
2017-09-15T07:47:41.956Z,15.8
2017-09-15T07:48:42.693Z,15.8
2017-09-15T07:49:43.511Z,15.8
2017-09-15T07:50:44.248Z,15.8
2017-09-15T07:51:45.217Z,15.8
2017-09-15T07:52:45.982Z,15.9
2017-09-15T07:53:47.258Z,15.9
2017-09-15T07:54:47.997Z,15.9
2017-09-15T07:55:48.781Z,15.9
2017-09-15T07:56:49.549Z,15.9
2017-09-15T07:57:50.372Z,16.0
2017-09-15T07:58:51.151Z,15.9
2017-09-15T07:59:52.000Z,15.9
2017-09-15T08:00:53.010Z,15.9
2017-09-15T08:01:54.152Z,15.6
2017-09-15T08:02:54.864Z,15.7
2017-09-15T08:03:55.727Z,15.7
2017-09-15T08:04:56.563Z,15.7
2017-09-15T08:05:57.345Z,15.8
2017-09-15T08:06:58.091Z,15.8
2017-09-15T08:07:58.908Z,15.9
2017-09-15T08:10:16.104Z,16.1
2017-09-15T08:11:16.855Z,16.2
2017-09-15T08:12:17.560Z,16.2
2017-09-15T08:13:18.380Z,16.2
2017-09-15T08:14:19.092Z,16.1
2017-09-15T08:15:19.935Z,16.1
2017-09-15T08:16:20.657Z,16.2
2017-09-15T08:17:21.524Z,16.2
2017-09-15T08:18:22.250Z,16.3
2017-09-15T08:19:23.337Z,16.2
2017-09-15T08:20:24.074Z,16.3
2017-09-15T08:21:25.055Z,16.3
2017-09-15T08:22:25.939Z,16.4
2017-09-15T08:23:26.734Z,16.4
2017-09-15T08:24:27.521Z,16.5
2017-09-15T08:25:28.423Z,16.5
2017-09-15T08:26:29.208Z,16.6
2017-09-15T08:27:29.954Z,16.5
2017-09-15T08:28:30.727Z,16.6
2017-09-15T08:29:31.509Z,16.7
2017-09-15T08:30:32.458Z,16.7
2017-09-15T08:31:33.241Z,16.8
2017-09-15T08:32:34.244Z,16.8
2017-09-15T08:33:35.260Z,16.8
2017-09-15T08:34:36.191Z,16.9
2017-09-15T08:35:37.181Z,16.8
2017-09-15T08:36:38.147Z,16.8
2017-09-15T08:37:38.949Z,16.8
2017-09-15T08:38:39.686Z,16.8
2017-09-15T08:39:40.525Z,16.8
2017-09-15T08:40:41.327Z,16.8
2017-09-15T08:41:42.078Z,16.9
2017-09-15T08:42:42.897Z,16.8
2017-09-15T08:43:43.794Z,17.0
2017-09-15T08:44:44.534Z,17.0
2017-09-15T08:45:45.369Z,17.1
2017-09-15T08:46:46.312Z,17.2
2017-09-15T08:47:47.447Z,17.3
2017-09-15T08:48:48.239Z,17.3
2017-09-15T08:49:49.327Z,17.2
2017-09-15T08:50:50.134Z,17.2
2017-09-15T08:51:50.952Z,17.2
2017-09-15T08:52:51.706Z,17.2
2017-09-15T08:53:52.486Z,17.2
2017-09-15T08:54:53.278Z,17.2
2017-09-15T08:55:54.051Z,17.1
2017-09-15T08:56:55.108Z,17.1
2017-09-15T08:57:55.964Z,17.1
2017-09-15T08:58:56.702Z,17.1
2017-09-15T08:59:57.467Z,17.1
2017-09-15T09:00:58.475Z,17.1
2017-09-15T09:01:59.407Z,17.2
2017-09-15T09:03:00.234Z,17.2
2017-09-15T09:04:00.965Z,17.3
2017-09-15T09:05:02.059Z,17.4
2017-09-15T09:06:02.777Z,17.6
2017-09-15T09:07:03.597Z,17.7
2017-09-15T09:08:04.436Z,17.8
2017-09-15T09:09:05.214Z,17.9
2017-09-15T09:10:05.969Z,17.8
2017-09-15T09:11:06.727Z,17.9
2017-09-15T09:12:07.484Z,18.0
2017-09-15T09:13:08.203Z,17.9
2017-09-15T09:14:08.925Z,18.0
2017-09-15T09:16:25.207Z,17.9
2017-09-15T09:17:26.064Z,17.7
2017-09-15T09:18:26.789Z,17.7
2017-09-15T09:19:27.569Z,17.8
2017-09-15T09:20:28.367Z,17.8
2017-09-15T09:21:29.222Z,17.8
2017-09-15T09:22:30.027Z,17.7
2017-09-15T09:23:30.871Z,17.7
2017-09-15T09:24:31.710Z,17.6
2017-09-15T09:25:32.878Z,17.7
2017-09-15T09:26:33.645Z,17.6
2017-09-15T09:27:39.391Z,17.6
2017-09-15T09:28:40.211Z,17.7
2017-09-15T09:29:40.970Z,17.9
2017-09-15T09:30:41.722Z,17.8
2017-09-15T09:31:42.506Z,18.0
2017-09-15T09:32:43.264Z,17.9
2017-09-15T09:33:44.017Z,17.8
2017-09-15T09:34:45.024Z,17.9
2017-09-15T09:35:45.745Z,17.8
2017-09-15T09:36:46.496Z,17.9
2017-09-15T09:37:47.300Z,17.9
2017-09-15T09:38:48.247Z,17.8
2017-09-15T09:39:49.001Z,17.9
2017-09-15T09:40:49.801Z,17.8
2017-09-15T09:41:50.562Z,17.9
2017-09-15T09:42:51.378Z,17.9
2017-09-15T09:43:52.111Z,18.0
2017-09-15T09:44:52.837Z,18.0
2017-09-15T09:45:53.902Z,18.1
2017-09-15T09:46:54.680Z,18.1
2017-09-15T09:47:55.520Z,18.2
2017-09-15T09:48:56.284Z,18.3
2017-09-15T09:49:57.250Z,18.4
2017-09-15T09:50:58.031Z,18.4
2017-09-15T09:51:59.008Z,18.6
2017-09-15T09:53:00.062Z,18.6
2017-09-15T09:54:00.791Z,18.6
2017-09-15T09:55:01.617Z,18.7
2017-09-15T09:56:02.373Z,18.6
2017-09-15T09:57:03.161Z,18.7
2017-09-15T09:58:03.907Z,18.7
2017-09-15T09:59:04.682Z,18.6
2017-09-15T10:01:21.354Z,18.7
2017-09-15T10:02:22.308Z,18.7
2017-09-15T10:03:23.247Z,18.7
2017-09-15T10:04:24.088Z,18.7
2017-09-15T10:05:24.903Z,18.8
2017-09-15T10:06:25.681Z,18.9
2017-09-15T10:07:26.453Z,19.1
2017-09-15T10:08:27.240Z,19.1
2017-09-15T10:09:28.015Z,19.2
2017-09-15T10:10:28.793Z,19.3
2017-09-15T10:11:29.507Z,19.3
2017-09-15T10:12:30.218Z,19.3
2017-09-15T10:13:31.062Z,19.3
2017-09-15T10:14:32.033Z,19.3
2017-09-15T10:16:48.336Z,19.3
2017-09-15T10:17:49.495Z,19.3
2017-09-15T10:18:50.180Z,19.3
2017-09-15T10:19:51.087Z,19.4
2017-09-15T10:20:51.997Z,19.5
2017-09-15T10:21:53.222Z,19.5
2017-09-15T10:22:53.957Z,19.6
2017-09-15T10:23:54.888Z,19.7
2017-09-15T10:24:55.869Z,19.7
2017-09-15T10:25:56.837Z,19.6
2017-09-15T10:26:57.563Z,19.5
2017-09-15T10:27:58.543Z,19.5
2017-09-15T10:28:59.344Z,19.4
2017-09-15T10:30:00.077Z,19.4
2017-09-15T10:31:00.939Z,19.3
2017-09-15T10:32:01.758Z,19.3
2017-09-15T10:33:02.567Z,19.3
2017-09-15T10:34:03.470Z,19.3
2017-09-15T10:35:04.184Z,19.1
2017-09-15T10:36:05.149Z,19.1
2017-09-15T10:37:06.030Z,19.1
2017-09-15T10:38:06.776Z,19.2
2017-09-15T10:39:07.729Z,19.3
2017-09-15T10:40:08.556Z,19.3
2017-09-15T10:41:09.829Z,19.2
2017-09-15T10:42:11.160Z,19.3
2017-09-15T10:43:11.954Z,19.3
2017-09-15T10:44:13.105Z,19.3
2017-09-15T10:45:14.064Z,19.3
2017-09-15T10:46:14.863Z,19.3
2017-09-15T10:47:15.779Z,19.2
2017-09-15T10:48:16.686Z,19.2
2017-09-15T10:49:17.747Z,19.2
2017-09-15T10:50:18.534Z,19.2
2017-09-15T10:51:19.254Z,19.1
2017-09-15T10:52:20.084Z,19.0
2017-09-15T10:53:21.026Z,19.1
2017-09-15T10:54:21.739Z,19.1
2017-09-15T10:55:22.560Z,19.1
2017-09-15T10:56:23.582Z,19.0
2017-09-15T10:57:24.396Z,18.9
2017-09-15T10:58:25.216Z,18.9
2017-09-15T10:59:25.916Z,18.8
2017-09-15T11:00:26.756Z,18.6
2017-09-15T11:01:27.978Z,18.6
2017-09-15T11:02:28.672Z,18.6
2017-09-15T11:03:29.556Z,18.6
2017-09-15T11:04:30.337Z,18.6
2017-09-15T11:05:31.158Z,18.7
2017-09-15T11:06:31.934Z,18.6
2017-09-15T11:07:32.708Z,18.6
2017-09-15T11:08:33.486Z,18.8
2017-09-15T11:09:34.211Z,18.6
2017-09-15T11:10:34.967Z,18.5
2017-09-15T11:11:35.733Z,18.3
2017-09-15T11:12:36.554Z,18.5
2017-09-15T11:13:37.259Z,18.4
2017-09-15T11:14:38.062Z,18.4
2017-09-15T11:15:38.827Z,18.4
2017-09-15T11:16:39.604Z,18.6
2017-09-15T11:17:40.314Z,18.6
2017-09-15T11:18:41.044Z,18.6
2017-09-15T11:19:41.804Z,18.7
2017-09-15T11:20:42.593Z,18.4
2017-09-15T11:21:43.326Z,18.3
2017-09-15T11:22:44.126Z,18.3
2017-09-15T11:23:44.873Z,18.3
2017-09-15T11:24:45.681Z,18.4
2017-09-15T11:25:46.647Z,18.5
2017-09-15T11:26:47.642Z,18.7
2017-09-15T11:27:48.593Z,18.6
2017-09-15T11:28:49.297Z,18.8
2017-09-15T11:29:50.031Z,19.0
2017-09-15T11:30:51.129Z,19.0
2017-09-15T11:31:52.055Z,19.0
2017-09-15T11:32:53.101Z,18.9
2017-09-15T11:33:53.920Z,18.8
2017-09-15T11:34:54.619Z,19.0
2017-09-15T11:35:55.383Z,19.0
2017-09-15T11:36:56.187Z,19.1
2017-09-15T11:37:56.937Z,19.2
2017-09-15T11:38:57.691Z,19.0
2017-09-15T11:39:58.493Z,19.0
2017-09-15T11:40:59.501Z,19.0
2017-09-15T11:42:00.276Z,19.1
2017-09-15T11:43:01.124Z,19.1
2017-09-15T11:44:01.956Z,19.2
2017-09-15T11:45:02.680Z,19.2
2017-09-15T11:46:03.533Z,19.1
2017-09-15T11:47:04.280Z,19.1
2017-09-15T11:48:05.076Z,19.1
2017-09-15T11:49:06.159Z,19.1
2017-09-15T11:50:07.823Z,19.1
2017-09-15T11:51:08.654Z,19.1
2017-09-15T11:52:09.880Z,19.0
2017-09-15T11:53:10.652Z,19.0
2017-09-15T11:54:11.403Z,19.2
2017-09-15T11:55:12.130Z,19.1
2017-09-15T11:56:12.934Z,19.1
2017-09-15T11:57:13.710Z,19.1
2017-09-15T12:03:17.072Z,19.2
2017-09-15T12:04:17.760Z,19.1
2017-09-15T12:05:18.676Z,19.1
2017-09-15T12:06:19.552Z,19.1
2017-09-15T12:07:20.487Z,19.1
2017-09-15T12:08:21.338Z,19.2
2017-09-15T12:09:22.087Z,19.3
2017-09-15T12:10:23.014Z,19.3
2017-09-15T12:11:23.741Z,19.3
2017-09-15T12:12:24.465Z,19.4
2017-09-15T12:13:25.301Z,19.5
2017-09-15T12:14:26.073Z,19.4
2017-09-15T12:15:27.767Z,19.6
2017-09-15T12:16:28.609Z,19.5
2017-09-15T12:17:29.322Z,19.7
2017-09-15T12:18:30.085Z,19.8
2017-09-15T12:19:30.981Z,19.8
2017-09-15T12:20:31.942Z,19.9
2017-09-15T12:21:32.662Z,20.0
2017-09-15T12:22:33.473Z,20.1
2017-09-15T12:23:34.311Z,20.2
2017-09-15T12:24:35.069Z,20.2
2017-09-15T12:25:36.123Z,20.4
2017-09-15T12:26:36.899Z,20.2
2017-09-15T12:27:37.909Z,20.3
2017-09-15T12:28:38.724Z,20.3
2017-09-15T12:29:39.560Z,20.5
2017-09-15T12:30:40.384Z,20.6
2017-09-15T12:31:41.181Z,20.6
2017-09-15T12:32:42.034Z,20.7
2017-09-15T12:33:42.782Z,20.8
2017-09-15T12:34:43.530Z,20.9
2017-09-15T12:35:44.336Z,20.9
2017-09-15T12:36:45.335Z,20.9
2017-09-15T12:37:46.149Z,21.0
2017-09-15T12:38:46.897Z,20.9
2017-09-15T12:39:47.686Z,20.8
2017-09-15T12:40:48.587Z,20.8
2017-09-15T12:41:49.336Z,20.7
2017-09-15T12:42:50.168Z,20.8
2017-09-15T12:43:50.910Z,20.8
2017-09-15T12:44:51.632Z,20.8
2017-09-15T12:45:52.496Z,20.8
2017-09-15T12:46:53.402Z,20.9
2017-09-15T12:47:54.131Z,21.0
2017-09-15T12:48:54.873Z,20.8
2017-09-15T12:49:55.599Z,20.9
2017-09-15T12:50:56.391Z,20.9
2017-09-15T12:51:57.256Z,21.0
2017-09-15T12:52:58.024Z,20.8
2017-09-15T12:53:58.807Z,20.8
2017-09-15T12:54:59.772Z,20.9
2017-09-15T12:56:00.701Z,20.9
2017-09-15T12:57:01.490Z,20.8
2017-09-15T12:58:02.293Z,20.7
2017-09-15T12:59:03.054Z,20.5
2017-09-15T13:00:03.944Z,20.3
2017-09-15T13:01:04.743Z,20.2
2017-09-15T13:02:05.580Z,20.1
2017-09-15T13:03:06.332Z,20.1
2017-09-15T13:04:07.386Z,20.0
2017-09-15T13:05:08.170Z,19.9
2017-09-15T13:06:08.956Z,19.9
2017-09-15T13:07:09.697Z,20.0
2017-09-15T13:08:10.526Z,19.9
2017-09-15T13:09:11.639Z,19.9
2017-09-15T13:10:13.007Z,19.8
2017-09-15T13:11:13.987Z,19.9
2017-09-15T13:12:15.080Z,19.9
2017-09-15T13:13:15.898Z,19.9
2017-09-15T13:14:16.740Z,19.8
2017-09-15T13:15:17.665Z,19.7
2017-09-15T13:16:18.777Z,19.8
2017-09-15T13:17:19.512Z,19.8
2017-09-15T13:18:20.316Z,19.7
2017-09-15T13:19:21.115Z,19.8
2017-09-15T13:20:22.010Z,19.7
2017-09-15T13:21:22.867Z,19.8
2017-09-15T13:22:23.650Z,19.7
2017-09-15T13:23:24.423Z,19.7
2017-09-15T13:24:25.351Z,19.6
2017-09-15T13:25:26.137Z,19.4
2017-09-15T13:26:26.883Z,19.4
2017-09-15T13:27:27.661Z,19.4
2017-09-15T13:28:28.441Z,19.5
2017-09-15T13:29:29.300Z,19.6
2017-09-15T13:30:30.555Z,19.7
2017-09-15T13:31:31.265Z,19.7
2017-09-15T13:32:31.983Z,19.7
2017-09-15T13:33:32.959Z,19.8
2017-09-15T13:34:33.697Z,19.7
2017-09-15T13:35:34.536Z,19.8
2017-09-15T13:36:35.305Z,19.6
2017-09-15T13:37:36.239Z,19.5
2017-09-15T13:38:36.959Z,19.4
2017-09-15T13:39:37.752Z,19.3
2017-09-15T13:41:54.072Z,19.3
2017-09-15T13:42:55.352Z,19.2
2017-09-15T13:43:56.023Z,19.3
2017-09-15T13:44:56.773Z,19.3
2017-09-15T13:45:57.782Z,19.3
2017-09-15T13:46:58.673Z,19.3
2017-09-15T13:47:59.450Z,19.2
2017-09-15T13:49:00.205Z,19.1
2017-09-15T13:50:01.029Z,19.1
2017-09-15T13:51:01.976Z,19.1
2017-09-15T13:52:02.733Z,19.2